createdAt,value
2018-11-26T00:01:35.036Z,19.00
2018-11-26T00:04:03.122Z,20.63
2018-11-26T00:06:31.245Z,18.90
2018-11-26T00:08:59.375Z,27.20
2018-11-26T00:11:36.423Z,21.97
2018-11-26T00:14:05.273Z,23.93
2018-11-26T00:16:33.678Z,23.97
2018-11-26T00:19:01.841Z,22.53
2018-11-26T00:21:29.987Z,22.33
2018-11-26T00:23:58.319Z,23.27
2018-11-26T00:26:26.498Z,23.50
2018-11-26T00:28:54.676Z,19.70
2018-11-26T00:31:22.776Z,18.87
2018-11-26T00:33:51.008Z,19.13
2018-11-26T00:36:19.153Z,22.03
2018-11-26T00:38:47.458Z,16.53
2018-11-26T00:41:15.559Z,20.30
2018-11-26T00:43:43.706Z,19.77
2018-11-26T00:46:11.913Z,18.97
2018-11-26T00:48:40.103Z,20.83
2018-11-26T00:51:08.276Z,17.80
2018-11-26T00:53:36.395Z,21.27
2018-11-26T00:56:04.885Z,23.13
2018-11-26T00:58:33.088Z,18.83
2018-11-26T01:01:01.192Z,16.70
2018-11-26T01:03:29.535Z,23.17
2018-11-26T01:05:57.665Z,18.03
2018-11-26T01:08:25.822Z,17.83
2018-11-26T01:10:53.947Z,19.00
2018-11-26T01:13:22.063Z,18.00
2018-11-26T01:15:50.195Z,22.83
2018-11-26T01:18:18.307Z,19.53
2018-11-26T01:20:46.463Z,16.33
2018-11-26T01:23:14.695Z,19.93
2018-11-26T01:25:42.807Z,17.50
2018-11-26T01:28:10.979Z,16.93
2018-11-26T01:30:39.158Z,16.53
2018-11-26T01:33:07.383Z,16.03
2018-11-26T01:35:35.489Z,19.10
2018-11-26T01:38:03.643Z,17.00
2018-11-26T01:40:37.147Z,18.00
2018-11-26T01:43:06.031Z,18.83
2018-11-26T01:45:34.177Z,17.53
2018-11-26T01:48:02.322Z,15.57
2018-11-26T01:50:30.584Z,17.07
2018-11-26T01:52:58.703Z,17.13
2018-11-26T01:55:26.852Z,17.27
2018-11-26T01:57:55.191Z,17.53
2018-11-26T02:00:25.620Z,16.63
2018-11-26T02:02:53.928Z,16.97
2018-11-26T02:05:22.079Z,17.30
2018-11-26T02:07:50.248Z,15.90
2018-11-26T02:10:19.395Z,17.53
2018-11-26T02:12:47.895Z,15.27
2018-11-26T02:15:27.527Z,19.37
2018-11-26T02:17:55.631Z,14.50
2018-11-26T02:20:24.232Z,15.03
2018-11-26T02:22:52.499Z,16.47
2018-11-26T02:25:20.665Z,13.90
2018-11-26T02:27:48.780Z,13.53
2018-11-26T02:30:17.111Z,18.23
2018-11-26T02:32:45.309Z,14.83
2018-11-26T02:35:13.391Z,16.87
2018-11-26T02:37:41.483Z,19.80
2018-11-26T02:40:12.995Z,14.97
2018-11-26T02:42:41.309Z,15.60
2018-11-26T02:45:09.461Z,18.17
2018-11-26T02:47:37.587Z,15.80
2018-11-26T02:50:05.699Z,15.30
2018-11-26T02:52:33.787Z,18.43
2018-11-26T02:55:02.181Z,16.17
2018-11-26T02:57:30.292Z,20.23
2018-11-26T02:59:58.447Z,16.43
2018-11-26T03:02:26.535Z,18.07
2018-11-26T03:04:54.675Z,14.77
2018-11-26T03:07:23.146Z,13.23
2018-11-26T03:09:51.347Z,15.27
2018-11-26T03:12:19.487Z,16.10
2018-11-26T03:14:47.583Z,16.70
2018-11-26T03:17:15.667Z,14.30
2018-11-26T03:19:43.803Z,15.93
2018-11-26T03:22:11.943Z,17.90
2018-11-26T03:24:40.086Z,14.50
2018-11-26T03:27:08.307Z,14.20
2018-11-26T03:29:36.396Z,13.33
2018-11-26T03:32:04.623Z,14.13
2018-11-26T03:34:32.779Z,16.77
2018-11-26T03:37:00.901Z,15.60
2018-11-26T03:39:29.003Z,13.10
2018-11-26T03:41:57.151Z,15.97
2018-11-26T03:44:25.276Z,14.27
2018-11-26T03:46:53.390Z,12.90
2018-11-26T03:49:21.511Z,14.53
2018-11-26T03:51:49.672Z,15.23
2018-11-26T03:54:17.819Z,17.40
2018-11-26T03:56:45.951Z,16.40
2018-11-26T03:59:14.133Z,15.83
2018-11-26T04:01:42.353Z,14.80
2018-11-26T04:04:10.507Z,14.70
2018-11-26T04:06:38.640Z,12.47
2018-11-26T04:09:08.223Z,14.03
2018-11-26T04:11:36.623Z,12.37
2018-11-26T04:14:04.767Z,13.37
2018-11-26T04:16:32.895Z,16.37
2018-11-26T04:19:01.031Z,12.30
2018-11-26T04:21:29.208Z,13.83
2018-11-26T04:23:58.355Z,14.83
2018-11-26T04:26:26.488Z,12.47
2018-11-26T04:28:54.728Z,15.27
2018-11-26T04:31:22.856Z,12.37
2018-11-26T04:33:50.967Z,17.83
2018-11-26T04:36:19.101Z,13.77
2018-11-26T04:38:47.235Z,12.87
2018-11-26T04:41:15.386Z,14.00
2018-11-26T04:43:43.603Z,16.80
2018-11-26T04:46:11.714Z,12.57
2018-11-26T04:48:39.868Z,14.90
2018-11-26T04:51:07.963Z,13.87
2018-11-26T04:53:36.077Z,13.83
2018-11-26T04:56:04.280Z,14.30
2018-11-26T04:58:32.475Z,13.47
2018-11-26T05:01:00.639Z,14.70
2018-11-26T05:03:28.808Z,14.00
2018-11-26T05:05:56.987Z,14.33
2018-11-26T05:08:25.084Z,11.93
2018-11-26T05:10:53.275Z,14.30
2018-11-26T05:13:21.404Z,14.40
2018-11-26T05:15:50.531Z,13.63
2018-11-26T05:18:18.646Z,16.87
2018-11-26T05:20:46.760Z,13.07
2018-11-26T05:23:14.891Z,12.20
2018-11-26T05:25:43.025Z,12.63
2018-11-26T05:28:11.232Z,14.63
2018-11-26T05:30:39.332Z,15.97
2018-11-26T05:33:07.436Z,15.43
2018-11-26T05:35:35.560Z,13.73
2018-11-26T05:38:03.655Z,16.07
2018-11-26T05:40:31.803Z,14.67
2018-11-26T05:42:59.922Z,22.73
2018-11-26T05:45:28.048Z,22.07
2018-11-26T05:47:56.182Z,19.15
2018-11-26T05:50:24.340Z,17.00
2018-11-26T05:52:52.674Z,16.97
2018-11-26T05:55:21.330Z,12.87
2018-11-26T05:57:48.928Z,17.10
2018-11-26T06:00:20.210Z,18.43
2018-11-26T06:02:48.326Z,13.03
2018-11-26T06:05:16.463Z,19.27
2018-11-26T06:07:44.588Z,17.10
2018-11-26T06:10:12.687Z,16.03
2018-11-26T06:12:40.807Z,18.60
2018-11-26T06:15:11.568Z,18.40
2018-11-26T06:17:39.911Z,18.70
2018-11-26T06:20:09.634Z,19.80
2018-11-26T06:22:37.701Z,19.00
2018-11-26T06:25:08.372Z,18.90
2018-11-26T06:27:36.470Z,20.30
2018-11-26T06:30:09.401Z,20.43
2018-11-26T06:32:37.498Z,20.70
2018-11-26T06:35:14.155Z,17.77
2018-11-26T06:37:42.283Z,19.73
2018-11-26T06:40:11.169Z,23.17
2018-11-26T06:42:39.320Z,22.97
2018-11-26T06:45:12.939Z,20.00
2018-11-26T06:47:41.512Z,17.63
2018-11-26T06:50:11.445Z,21.63
2018-11-26T06:52:39.704Z,21.00
2018-11-26T06:55:09.771Z,22.10
2018-11-26T06:57:37.974Z,23.10
2018-11-26T07:00:08.937Z,19.47
2018-11-26T07:02:37.071Z,22.37
2018-11-26T07:05:08.271Z,21.07
2018-11-26T07:07:36.368Z,22.17
2018-11-26T07:10:04.543Z,23.07
2018-11-26T07:12:32.631Z,19.50
2018-11-26T07:15:00.768Z,17.73
2018-11-26T07:17:28.948Z,18.87
2018-11-26T07:19:57.090Z,20.50
2018-11-26T07:22:25.563Z,17.30
2018-11-26T07:24:53.689Z,20.50
2018-11-26T07:27:21.792Z,21.33
2018-11-26T07:29:49.947Z,16.33
2018-11-26T07:32:18.615Z,20.03
2018-11-26T07:34:46.722Z,16.37
2018-11-26T07:37:14.823Z,20.43
2018-11-26T07:39:42.941Z,22.80
2018-11-26T07:42:11.037Z,19.37
2018-11-26T07:44:39.150Z,17.87
2018-11-26T07:47:08.097Z,16.10
2018-11-26T07:49:36.190Z,17.60
2018-11-26T07:52:04.735Z,19.67
2018-11-26T07:54:32.822Z,16.27
2018-11-26T07:57:01.939Z,17.97
2018-11-26T07:59:30.084Z,17.83
2018-11-26T08:01:58.171Z,15.80
2018-11-26T08:04:26.295Z,18.07
2018-11-26T08:06:54.395Z,16.43
2018-11-26T08:09:22.494Z,18.20
2018-11-26T08:11:50.591Z,16.60
2018-11-26T08:14:18.700Z,15.73
2018-11-26T08:16:46.844Z,16.33
2018-11-26T08:19:14.959Z,17.70
2018-11-26T08:21:43.059Z,16.03
2018-11-26T08:24:11.173Z,16.60
2018-11-26T08:26:39.267Z,13.73
2018-11-26T08:29:07.589Z,16.00
2018-11-26T08:31:35.699Z,20.10
2018-11-26T08:34:03.796Z,15.80
2018-11-26T08:36:33.779Z,15.27
2018-11-26T08:39:07.320Z,13.80
2018-11-26T08:41:36.959Z,14.53
2018-11-26T08:44:10.631Z,15.67
2018-11-26T08:46:44.202Z,16.50
2018-11-26T08:49:16.009Z,16.03
2018-11-26T08:51:44.207Z,16.03
2018-11-26T08:54:12.328Z,18.47
2018-11-26T08:56:40.655Z,16.53
2018-11-26T08:59:08.745Z,15.37
2018-11-26T09:01:44.115Z,16.37
2018-11-26T09:04:17.738Z,16.47
2018-11-26T09:06:46.071Z,14.90
2018-11-26T09:09:14.171Z,14.93
2018-11-26T09:11:42.263Z,16.03
2018-11-26T09:14:10.639Z,16.70
2018-11-26T09:16:38.786Z,14.50
2018-11-26T09:19:06.908Z,14.37
2018-11-26T09:21:35.052Z,14.53
2018-11-26T09:24:03.135Z,17.80
2018-11-26T09:26:31.237Z,17.77
2018-11-26T09:28:59.587Z,16.27
2018-11-26T09:31:27.675Z,16.37
2018-11-26T09:33:55.851Z,19.40
2018-11-26T09:36:24.551Z,18.33
2018-11-26T09:38:52.912Z,18.27
2018-11-26T09:41:21.651Z,17.93
2018-11-26T09:43:49.695Z,19.47
2018-11-26T09:46:17.858Z,15.00
2018-11-26T09:48:45.966Z,20.40
2018-11-26T09:51:14.479Z,17.83
2018-11-26T09:53:42.410Z,15.40
2018-11-26T09:56:10.491Z,16.13
2018-11-26T09:58:38.827Z,16.77
2018-11-26T10:01:06.929Z,14.40
2018-11-26T10:03:35.095Z,17.30
2018-11-26T10:06:03.757Z,14.17
2018-11-26T10:08:31.914Z,16.77
2018-11-26T10:10:59.955Z,15.90
2018-11-26T10:13:28.253Z,15.30
2018-11-26T10:15:56.363Z,16.40
2018-11-26T10:18:24.474Z,19.07
2018-11-26T10:20:53.988Z,16.17
2018-11-26T10:23:29.771Z,16.97
2018-11-26T10:25:58.941Z,15.30
2018-11-26T10:28:27.641Z,16.47
2018-11-26T10:30:56.356Z,13.80
2018-11-26T10:33:24.619Z,17.17
2018-11-26T10:35:59.941Z,14.87
2018-11-26T10:38:28.030Z,14.77
2018-11-26T10:40:56.107Z,16.50
2018-11-26T10:43:24.219Z,14.97
2018-11-26T10:45:52.360Z,15.47
2018-11-26T10:48:20.495Z,14.33
2018-11-26T10:50:48.813Z,15.47
2018-11-26T10:53:16.952Z,13.67
2018-11-26T10:55:45.069Z,15.20
2018-11-26T10:58:13.217Z,11.87
2018-11-26T11:00:45.568Z,11.73
2018-11-26T11:03:13.695Z,11.50
2018-11-26T11:05:41.847Z,11.80
2018-11-26T11:08:10.187Z,13.27
2018-11-26T11:10:38.291Z,14.20
2018-11-26T11:13:07.043Z,11.80
2018-11-26T11:15:35.456Z,10.33
2018-11-26T11:18:03.825Z,13.70
2018-11-26T11:20:32.011Z,11.27
2018-11-26T11:23:00.508Z,11.93
2018-11-26T11:25:28.632Z,12.23
2018-11-26T11:27:56.815Z,13.77
2018-11-26T11:30:27.332Z,11.67
2018-11-26T11:32:55.569Z,12.63
2018-11-26T11:35:23.838Z,15.17
2018-11-26T11:37:53.012Z,13.07
2018-11-26T11:40:25.693Z,12.40
2018-11-26T11:42:55.380Z,11.97
2018-11-26T11:45:24.029Z,13.57
2018-11-26T11:47:52.417Z,12.93
2018-11-26T11:50:21.328Z,13.03
2018-11-26T11:52:49.857Z,14.63
2018-11-26T11:55:19.047Z,14.97
2018-11-26T11:57:49.900Z,11.87
2018-11-26T12:00:29.474Z,11.73
2018-11-26T12:02:57.637Z,14.07
2018-11-26T12:05:26.132Z,12.97
2018-11-26T12:07:54.257Z,14.23
2018-11-26T12:10:22.393Z,14.27
2018-11-26T12:12:50.532Z,11.97
2018-11-26T12:15:18.712Z,12.57
2018-11-26T12:17:47.735Z,17.83
2018-11-26T12:20:16.437Z,12.53
2018-11-26T12:22:45.013Z,12.80
2018-11-26T12:25:15.341Z,13.93
2018-11-26T12:27:43.484Z,12.43
2018-11-26T12:30:17.990Z,12.90
2018-11-26T12:32:46.075Z,10.57
2018-11-26T12:35:14.276Z,14.63
2018-11-26T12:37:42.412Z,12.20
2018-11-26T12:40:16.044Z,15.87
2018-11-26T12:42:44.254Z,12.33
2018-11-26T12:45:28.508Z,13.47
2018-11-26T12:47:56.765Z,13.97
2018-11-26T12:50:24.981Z,12.97
2018-11-26T12:52:53.117Z,12.83
2018-11-26T12:55:22.921Z,9.67
2018-11-26T12:57:53.186Z,11.97
2018-11-26T13:00:22.522Z,12.30
2018-11-26T13:03:00.021Z,11.10
2018-11-26T13:05:28.123Z,12.03
2018-11-26T13:07:59.190Z,10.53
2018-11-26T13:10:30.370Z,13.57
2018-11-26T13:12:58.617Z,13.83
2018-11-26T13:15:31.139Z,11.90
2018-11-26T13:17:59.760Z,13.87
2018-11-26T13:20:31.110Z,14.37
2018-11-26T13:23:00.956Z,13.07
2018-11-26T13:25:35.206Z,12.17
2018-11-26T13:28:33.693Z,13.33
2018-11-26T13:31:01.881Z,14.70
2018-11-26T13:33:30.405Z,11.17
2018-11-26T13:35:59.481Z,11.10
2018-11-26T13:38:30.206Z,12.77
2018-11-26T13:41:01.190Z,11.83
2018-11-26T13:43:29.386Z,14.63
2018-11-26T13:45:57.532Z,10.90
2018-11-26T13:48:25.685Z,10.67
2018-11-26T13:50:55.972Z,11.37
2018-11-26T13:53:24.138Z,11.27
2018-11-26T13:55:52.525Z,11.67
2018-11-26T13:58:21.226Z,11.33
2018-11-26T14:00:49.414Z,10.08
2018-11-26T14:03:25.815Z,11.50
2018-11-26T14:05:54.010Z,11.53
2018-11-26T14:08:22.195Z,11.20
2018-11-26T14:10:51.302Z,12.50
2018-11-26T14:13:19.838Z,13.30
2018-11-26T14:15:48.819Z,10.70
2018-11-26T14:18:16.916Z,10.97
2018-11-26T14:20:45.200Z,11.83
2018-11-26T14:23:13.413Z,12.80
2018-11-26T14:25:41.609Z,13.10
2018-11-26T14:28:09.782Z,10.70
2018-11-26T14:30:38.132Z,12.83
2018-11-26T14:33:07.002Z,11.00
2018-11-26T14:35:35.181Z,10.50
2018-11-26T14:38:09.983Z,10.10
2018-11-26T14:40:46.992Z,12.77
2018-11-26T14:43:15.545Z,14.80
2018-11-26T14:45:43.840Z,12.03
2018-11-26T14:48:12.111Z,23.37
2018-11-26T14:50:40.205Z,12.23
2018-11-26T14:53:10.066Z,10.67
2018-11-26T14:55:38.590Z,11.33
2018-11-26T14:58:07.927Z,11.00
2018-11-26T15:00:36.181Z,17.13
2018-11-26T15:03:04.721Z,9.13
2018-11-26T15:05:33.034Z,10.07
2018-11-26T15:08:01.158Z,12.67
2018-11-26T15:10:29.313Z,12.03
2018-11-26T15:12:57.664Z,10.03
2018-11-26T15:15:26.520Z,10.90
2018-11-26T15:17:55.689Z,14.20
2018-11-26T15:20:25.521Z,11.60
2018-11-26T15:22:56.781Z,11.70
2018-11-26T15:25:28.923Z,11.67
2018-11-26T15:27:58.321Z,13.00
2018-11-26T15:30:26.730Z,10.37
2018-11-26T15:32:54.895Z,10.73
2018-11-26T15:35:23.919Z,11.90
2018-11-26T15:37:52.088Z,10.53
2018-11-26T15:40:21.205Z,11.20
2018-11-26T15:42:49.649Z,9.30
2018-11-26T15:45:19.682Z,11.93
2018-11-26T15:47:48.628Z,10.97
2018-11-26T15:50:17.334Z,13.20
2018-11-26T15:52:45.741Z,8.30
2018-11-26T15:55:16.742Z,8.67
2018-11-26T15:57:49.093Z,10.80
2018-11-26T16:00:24.520Z,7.93
2018-11-26T16:02:53.246Z,8.97
2018-11-26T16:05:27.298Z,8.07
2018-11-26T16:07:57.498Z,22.57
2018-11-26T16:10:26.075Z,16.77
2018-11-26T16:12:56.159Z,27.93
2018-11-26T16:15:27.053Z,11.33
2018-11-26T16:17:56.703Z,10.43
2018-11-26T16:20:25.933Z,21.17
2018-11-26T16:22:54.336Z,11.73
2018-11-26T16:25:24.576Z,16.93
2018-11-26T16:27:52.911Z,22.93
2018-11-26T16:30:21.032Z,10.63
2018-11-26T16:32:53.695Z,15.67
2018-11-26T16:35:24.217Z,12.77
2018-11-26T16:37:54.360Z,8.40
2018-11-26T16:40:22.934Z,9.67
2018-11-26T16:42:54.494Z,8.80
2018-11-26T16:45:24.767Z,8.50
2018-11-26T16:47:53.962Z,12.47
2018-11-26T16:50:25.161Z,8.93
2018-11-26T16:52:54.734Z,9.70
2018-11-26T16:55:24.451Z,8.57
2018-11-26T16:57:52.678Z,7.83
2018-11-26T17:00:29.818Z,9.50
2018-11-26T17:03:00.751Z,9.30
2018-11-26T17:05:43.289Z,9.00
2018-11-26T17:08:13.509Z,10.37
2018-11-26T17:10:44.806Z,10.93
2018-11-26T17:13:15.088Z,8.43
2018-11-26T17:15:43.735Z,12.53
2018-11-26T17:18:12.130Z,16.17
2018-11-26T17:20:40.428Z,12.07
2018-11-26T17:23:08.642Z,17.77
2018-11-26T17:25:37.045Z,14.00
2018-11-26T17:28:05.478Z,11.83
2018-11-26T17:30:33.680Z,14.90
2018-11-26T17:33:03.278Z,13.17
2018-11-26T17:35:49.098Z,14.57
2018-11-26T17:38:19.569Z,16.27
2018-11-26T17:41:12.784Z,12.77
2018-11-26T17:43:42.125Z,14.77
2018-11-26T17:46:10.610Z,13.10
2018-11-26T17:48:38.944Z,13.80
2018-11-26T17:51:07.318Z,13.17
2018-11-26T17:53:37.139Z,12.20
2018-11-26T18:13:37.786Z,9.97
2018-11-26T18:16:06.369Z,12.43
2018-11-26T18:18:34.661Z,10.13
2018-11-26T18:21:02.942Z,12.90
2018-11-26T18:23:32.699Z,9.90
2018-11-26T18:28:42.427Z,10.90
2018-11-26T18:31:10.879Z,9.47
2018-11-26T18:36:22.877Z,8.67
2018-11-26T18:39:10.030Z,10.37
2018-11-26T18:41:38.527Z,9.77
2018-11-26T18:44:06.841Z,9.17
2018-11-26T18:46:35.177Z,13.50
2018-11-26T18:49:03.591Z,10.27
2018-11-26T18:51:31.799Z,10.17
2018-11-26T18:54:00.140Z,9.43
2018-11-26T18:56:29.697Z,9.87
2018-11-26T18:58:58.129Z,10.67
2018-11-26T19:01:26.441Z,8.90
2018-11-26T19:03:54.647Z,7.10
2018-11-26T19:06:23.287Z,9.40
2018-11-26T19:08:51.884Z,10.87
2018-11-26T19:11:20.937Z,9.57
2018-11-26T19:14:08.058Z,7.70
2018-11-26T19:16:38.601Z,10.37
2018-11-26T19:19:07.112Z,9.63
2018-11-26T19:21:37.332Z,9.73
2018-11-26T19:24:08.458Z,8.17
2018-11-26T19:26:37.264Z,17.50
2018-11-26T19:29:05.901Z,9.43
2018-11-26T19:31:34.426Z,8.20
2018-11-26T19:34:03.988Z,8.50
2018-11-26T19:36:33.229Z,8.87
2018-11-26T19:39:01.496Z,11.30
2018-11-26T19:41:31.418Z,9.10
2018-11-26T19:44:01.256Z,10.83
2018-11-26T19:46:29.708Z,9.63
2018-11-26T19:48:57.875Z,7.57
2018-11-26T19:51:25.993Z,8.60
2018-11-26T19:53:55.309Z,8.33
2018-11-26T19:56:23.457Z,9.40
2018-11-26T19:59:01.540Z,7.83
2018-11-26T20:09:08.132Z,7.40
2018-11-26T20:11:36.259Z,8.30
2018-11-26T20:16:43.781Z,9.77
2018-11-26T20:19:11.893Z,8.50
2018-11-26T20:21:45.134Z,7.30
2018-11-26T20:24:13.288Z,8.07
2018-11-26T20:26:41.398Z,7.80
2018-11-26T20:29:09.738Z,7.53
2018-11-26T20:31:39.175Z,9.57
2018-11-26T20:34:07.885Z,8.50
2018-11-26T20:36:36.032Z,8.30
2018-11-26T20:39:06.581Z,7.77
2018-11-26T20:41:34.750Z,9.27
2018-11-26T20:44:03.105Z,8.20
2018-11-26T20:46:31.280Z,7.57
2018-11-26T20:48:59.390Z,8.40
2018-11-26T20:51:27.573Z,8.47
2018-11-26T20:53:56.008Z,6.37
2018-11-26T20:56:24.402Z,8.70
2018-11-26T20:58:52.553Z,9.17
2018-11-26T21:01:20.881Z,7.40
2018-11-26T21:03:49.453Z,9.13
2018-11-26T21:06:18.090Z,8.03
2018-11-26T21:08:47.785Z,8.77
2018-11-26T21:11:16.309Z,9.67
2018-11-26T21:13:46.369Z,5.93
2018-11-26T21:16:14.941Z,11.30
2018-11-26T21:18:43.330Z,8.13
2018-11-26T21:21:11.681Z,6.30
2018-11-26T21:23:40.135Z,11.57
2018-11-26T21:26:08.969Z,6.87
2018-11-26T21:28:37.477Z,9.00
2018-11-26T21:31:07.434Z,8.13
2018-11-26T21:33:36.093Z,7.13
2018-11-26T21:36:04.478Z,9.20
2018-11-26T21:38:33.980Z,7.70
2018-11-26T21:41:02.661Z,6.70
2018-11-26T21:43:31.552Z,9.17
2018-11-26T21:46:01.020Z,7.03
2018-11-26T21:48:29.388Z,10.27
2018-11-26T21:50:57.797Z,10.33
2018-11-26T21:53:26.196Z,8.30
2018-11-26T21:55:54.832Z,7.30
2018-11-26T21:58:23.261Z,8.57
2018-11-26T22:00:53.569Z,7.30
2018-11-26T22:03:23.154Z,7.17
2018-11-26T22:05:51.471Z,8.40
2018-11-26T22:08:19.833Z,8.60
2018-11-26T22:10:48.248Z,8.53
2018-11-26T22:13:18.384Z,14.20
2018-11-26T22:15:46.764Z,9.33
2018-11-26T22:18:15.257Z,8.40
2018-11-26T22:20:43.699Z,7.40
2018-11-26T22:23:15.891Z,7.27
2018-11-26T22:25:44.562Z,9.33
2018-11-26T22:28:14.533Z,21.93
2018-11-26T22:30:45.798Z,8.17
2018-11-26T22:33:14.233Z,10.43
2018-11-26T22:35:42.592Z,10.57
2018-11-26T22:38:11.384Z,8.13
2018-11-26T22:40:39.465Z,7.43
2018-11-26T22:43:07.590Z,6.90
2018-11-26T22:45:35.659Z,7.80
2018-11-26T22:48:08.263Z,8.13
2018-11-26T22:50:38.087Z,9.67
2018-11-26T22:53:09.898Z,7.20
2018-11-26T22:55:38.039Z,7.27
2018-11-26T22:58:12.333Z,11.37
2018-11-26T23:00:46.900Z,11.53
2018-11-26T23:03:16.320Z,13.77
2018-11-26T23:05:44.434Z,8.30
2018-11-26T23:08:12.486Z,13.53
2018-11-26T23:10:40.663Z,10.13
2018-11-26T23:13:09.045Z,10.93
2018-11-26T23:15:37.208Z,10.70
2018-11-26T23:18:05.989Z,12.70
2018-11-26T23:20:34.053Z,8.57
2018-11-26T23:23:02.360Z,11.37
2018-11-26T23:25:30.497Z,8.03
2018-11-26T23:27:58.592Z,7.10
2018-11-26T23:30:27.902Z,9.97
2018-11-26T23:32:57.179Z,10.33
2018-11-26T23:35:25.284Z,9.10
2018-11-26T23:37:53.431Z,10.90
2018-11-26T23:40:21.537Z,8.47
2018-11-26T23:42:49.658Z,7.53
2018-11-26T23:45:18.849Z,7.60
2018-11-26T23:47:47.012Z,9.13
2018-11-26T23:50:16.352Z,9.53
2018-11-26T23:52:44.868Z,10.07
2018-11-26T23:55:14.151Z,9.93
2018-11-26T23:57:42.261Z,10.90
